sensor_id;sensor_type;location;lat;lon;timestamp;P1;durP1;ratioP1;P2;durP2;ratioP2
67757;SDS011;54562;47.620;18.786;2023-03-19T00:01:47;14.30;;;7.40;;
67757;SDS011;54562;47.620;18.786;2023-03-19T00:04:55;11.30;;;6.50;;
67757;SDS011;54562;47.620;18.786;2023-03-19T00:08:04;12.80;;;7.00;;
67757;SDS011;54562;47.620;18.786;2023-03-19T00:11:13;11.90;;;7.50;;
67757;SDS011;54562;47.620;18.786;2023-03-19T00:14:22;12.60;;;6.80;;
67757;SDS011;54562;47.620;18.786;2023-03-19T00:17:30;10.90;;;6.20;;
67757;SDS011;54562;47.620;18.786;2023-03-19T00:20:38;12.60;;;7.10;;
67757;SDS011;54562;47.620;18.786;2023-03-19T00:23:46;12.50;;;7.40;;
67757;SDS011;54562;47.620;18.786;2023-03-19T00:26:56;11.80;;;6.80;;
67757;SDS011;54562;47.620;18.786;2023-03-19T00:30:05;11.80;;;7.00;;
67757;SDS011;54562;47.620;18.786;2023-03-19T00:33:15;13.00;;;7.20;;
67757;SDS011;54562;47.620;18.786;2023-03-19T00:36:24;10.80;;;5.90;;
67757;SDS011;54562;47.620;18.786;2023-03-19T00:39:34;11.40;;;6.10;;
67757;SDS011;54562;47.620;18.786;2023-03-19T00:42:43;13.40;;;7.40;;
67757;SDS011;54562;47.620;18.786;2023-03-19T00:45:51;11.30;;;6.60;;
67757;SDS011;54562;47.620;18.786;2023-03-19T00:48:59;13.00;;;7.10;;
67757;SDS011;54562;47.620;18.786;2023-03-19T00:52:09;12.50;;;6.70;;
67757;SDS011;54562;47.620;18.786;2023-03-19T00:55:17;12.50;;;6.20;;
67757;SDS011;54562;47.620;18.786;2023-03-19T00:58:26;10.20;;;6.20;;
67757;SDS011;54562;47.620;18.786;2023-03-19T01:01:34;10.90;;;6.00;;
67757;SDS011;54562;47.620;18.786;2023-03-19T01:04:42;13.00;;;6.60;;
67757;SDS011;54562;47.620;18.786;2023-03-19T01:07:52;12.60;;;6.40;;
67757;SDS011;54562;47.620;18.786;2023-03-19T01:11:07;12.20;;;7.10;;
67757;SDS011;54562;47.620;18.786;2023-03-19T01:14:17;11.50;;;6.50;;
67757;SDS011;54562;47.620;18.786;2023-03-19T01:17:26;13.30;;;6.50;;
67757;SDS011;54562;47.620;18.786;2023-03-19T01:20:35;12.10;;;6.50;;
67757;SDS011;54562;47.620;18.786;2023-03-19T01:23:45;11.00;;;6.00;;
67757;SDS011;54562;47.620;18.786;2023-03-19T01:26:53;13.30;;;6.60;;
67757;SDS011;54562;47.620;18.786;2023-03-19T01:30:01;13.80;;;6.90;;
67757;SDS011;54562;47.620;18.786;2023-03-19T01:33:10;11.30;;;6.40;;
67757;SDS011;54562;47.620;18.786;2023-03-19T01:36:18;13.00;;;7.10;;
67757;SDS011;54562;47.620;18.786;2023-03-19T01:39:27;10.60;;;5.90;;
67757;SDS011;54562;47.620;18.786;2023-03-19T01:42:51;11.10;;;6.40;;
67757;SDS011;54562;47.620;18.786;2023-03-19T01:46:03;11.60;;;7.20;;
67757;SDS011;54562;47.620;18.786;2023-03-19T01:49:20;13.90;;;7.60;;
67757;SDS011;54562;47.620;18.786;2023-03-19T01:52:32;12.00;;;7.10;;
67757;SDS011;54562;47.620;18.786;2023-03-19T01:55:42;13.80;;;7.30;;
67757;SDS011;54562;47.620;18.786;2023-03-19T01:58:55;13.10;;;7.60;;
67757;SDS011;54562;47.620;18.786;2023-03-19T02:02:10;14.80;;;7.10;;
67757;SDS011;54562;47.620;18.786;2023-03-19T02:05:22;13.30;;;7.30;;
67757;SDS011;54562;47.620;18.786;2023-03-19T02:08:32;15.30;;;7.00;;
67757;SDS011;54562;47.620;18.786;2023-03-19T02:11:43;12.20;;;6.90;;
67757;SDS011;54562;47.620;18.786;2023-03-19T02:14:53;11.70;;;6.30;;
67757;SDS011;54562;47.620;18.786;2023-03-19T02:18:01;12.40;;;6.70;;
67757;SDS011;54562;47.620;18.786;2023-03-19T02:21:11;12.60;;;7.00;;
67757;SDS011;54562;47.620;18.786;2023-03-19T02:24:24;12.30;;;6.80;;
67757;SDS011;54562;47.620;18.786;2023-03-19T02:27:37;11.70;;;6.60;;
67757;SDS011;54562;47.620;18.786;2023-03-19T02:30:46;13.10;;;7.70;;
67757;SDS011;54562;47.620;18.786;2023-03-19T02:34:00;12.90;;;7.50;;
67757;SDS011;54562;47.620;18.786;2023-03-19T02:37:15;13.90;;;7.40;;
67757;SDS011;54562;47.620;18.786;2023-03-19T02:40:28;13.70;;;8.10;;
67757;SDS011;54562;47.620;18.786;2023-03-19T02:43:42;14.30;;;8.10;;
67757;SDS011;54562;47.620;18.786;2023-03-19T02:46:51;13.60;;;7.70;;
67757;SDS011;54562;47.620;18.786;2023-03-19T02:49:59;14.80;;;8.40;;
67757;SDS011;54562;47.620;18.786;2023-03-19T02:53:07;14.40;;;8.60;;
67757;SDS011;54562;47.620;18.786;2023-03-19T02:56:15;13.10;;;7.60;;
67757;SDS011;54562;47.620;18.786;2023-03-19T02:59:23;14.40;;;7.90;;
67757;SDS011;54562;47.620;18.786;2023-03-19T03:02:31;14.60;;;8.30;;
67757;SDS011;54562;47.620;18.786;2023-03-19T03:05:39;14.40;;;8.60;;
67757;SDS011;54562;47.620;18.786;2023-03-19T03:08:47;14.30;;;8.30;;
67757;SDS011;54562;47.620;18.786;2023-03-19T03:11:55;15.40;;;8.40;;
67757;SDS011;54562;47.620;18.786;2023-03-19T03:15:05;16.10;;;8.60;;
67757;SDS011;54562;47.620;18.786;2023-03-19T03:18:13;19.70;;;8.60;;
67757;SDS011;54562;47.620;18.786;2023-03-19T03:21:21;15.80;;;8.60;;
67757;SDS011;54562;47.620;18.786;2023-03-19T03:24:30;14.70;;;8.60;;
67757;SDS011;54562;47.620;18.786;2023-03-19T03:27:38;14.10;;;7.80;;
67757;SDS011;54562;47.620;18.786;2023-03-19T03:30:47;13.30;;;7.60;;
67757;SDS011;54562;47.620;18.786;2023-03-19T03:33:55;15.40;;;8.80;;
67757;SDS011;54562;47.620;18.786;2023-03-19T03:37:03;14.90;;;8.40;;
67757;SDS011;54562;47.620;18.786;2023-03-19T03:40:12;14.30;;;8.00;;
67757;SDS011;54562;47.620;18.786;2023-03-19T03:43:24;9.90;;;5.40;;
67757;SDS011;54562;47.620;18.786;2023-03-19T03:46:32;14.90;;;8.80;;
67757;SDS011;54562;47.620;18.786;2023-03-19T03:49:41;14.10;;;7.60;;
67757;SDS011;54562;47.620;18.786;2023-03-19T03:52:50;16.30;;;8.80;;
67757;SDS011;54562;47.620;18.786;2023-03-19T03:55:58;16.00;;;8.30;;
67757;SDS011;54562;47.620;18.786;2023-03-19T03:59:06;9.80;;;4.90;;
67757;SDS011;54562;47.620;18.786;2023-03-19T04:02:14;14.40;;;7.10;;
67757;SDS011;54562;47.620;18.786;2023-03-19T04:05:22;7.90;;;4.00;;
67757;SDS011;54562;47.620;18.786;2023-03-19T04:08:31;14.00;;;7.80;;
67757;SDS011;54562;47.620;18.786;2023-03-19T04:11:39;13.80;;;8.30;;
67757;SDS011;54562;47.620;18.786;2023-03-19T04:14:47;15.90;;;8.40;;
67757;SDS011;54562;47.620;18.786;2023-03-19T04:17:55;13.70;;;8.10;;
67757;SDS011;54562;47.620;18.786;2023-03-19T04:21:04;14.80;;;8.30;;
67757;SDS011;54562;47.620;18.786;2023-03-19T04:24:12;15.90;;;8.00;;
67757;SDS011;54562;47.620;18.786;2023-03-19T04:27:20;16.20;;;8.00;;
67757;SDS011;54562;47.620;18.786;2023-03-19T04:30:30;15.10;;;8.50;;
67757;SDS011;54562;47.620;18.786;2023-03-19T04:33:39;13.70;;;8.40;;
67757;SDS011;54562;47.620;18.786;2023-03-19T04:36:49;15.10;;;8.40;;
67757;SDS011;54562;47.620;18.786;2023-03-19T04:39:57;13.30;;;7.20;;
67757;SDS011;54562;47.620;18.786;2023-03-19T04:46:18;16.30;;;7.90;;
67757;SDS011;54562;47.620;18.786;2023-03-19T04:49:26;15.70;;;8.40;;
67757;SDS011;54562;47.620;18.786;2023-03-19T04:52:35;13.30;;;7.60;;
67757;SDS011;54562;47.620;18.786;2023-03-19T04:55:43;16.00;;;7.70;;
67757;SDS011;54562;47.620;18.786;2023-03-19T04:58:53;13.30;;;7.70;;
67757;SDS011;54562;47.620;18.786;2023-03-19T05:02:01;13.00;;;7.40;;
67757;SDS011;54562;47.620;18.786;2023-03-19T05:05:18;14.10;;;7.70;;
67757;SDS011;54562;47.620;18.786;2023-03-19T05:08:26;13.20;;;7.60;;
67757;SDS011;54562;47.620;18.786;2023-03-19T05:11:34;13.20;;;7.40;;
67757;SDS011;54562;47.620;18.786;2023-03-19T05:14:42;14.20;;;7.50;;
67757;SDS011;54562;47.620;18.786;2023-03-19T05:17:50;15.30;;;6.90;;
67757;SDS011;54562;47.620;18.786;2023-03-19T05:20:58;12.70;;;7.30;;
67757;SDS011;54562;47.620;18.786;2023-03-19T05:24:09;14.30;;;7.80;;
67757;SDS011;54562;47.620;18.786;2023-03-19T05:27:17;14.00;;;7.40;;
67757;SDS011;54562;47.620;18.786;2023-03-19T05:30:25;13.00;;;6.90;;
67757;SDS011;54562;47.620;18.786;2023-03-19T05:33:33;14.70;;;7.40;;
67757;SDS011;54562;47.620;18.786;2023-03-19T05:36:41;11.50;;;6.70;;
67757;SDS011;54562;47.620;18.786;2023-03-19T05:39:50;11.20;;;6.50;;
67757;SDS011;54562;47.620;18.786;2023-03-19T05:42:58;13.90;;;7.80;;
67757;SDS011;54562;47.620;18.786;2023-03-19T05:49:13;12.90;;;7.40;;
67757;SDS011;54562;47.620;18.786;2023-03-19T05:52:21;15.90;;;7.70;;
67757;SDS011;54562;47.620;18.786;2023-03-19T05:55:29;13.90;;;7.20;;
67757;SDS011;54562;47.620;18.786;2023-03-19T05:58:37;13.70;;;7.90;;
67757;SDS011;54562;47.620;18.786;2023-03-19T06:01:45;11.70;;;6.60;;
67757;SDS011;54562;47.620;18.786;2023-03-19T06:04:54;13.20;;;7.60;;
67757;SDS011;54562;47.620;18.786;2023-03-19T06:08:02;13.50;;;7.60;;
67757;SDS011;54562;47.620;18.786;2023-03-19T06:11:10;14.20;;;5.90;;
67757;SDS011;54562;47.620;18.786;2023-03-19T06:14:18;17.10;;;7.30;;
67757;SDS011;54562;47.620;18.786;2023-03-19T06:17:26;16.10;;;8.50;;
67757;SDS011;54562;47.620;18.786;2023-03-19T06:20:35;13.80;;;7.80;;
67757;SDS011;54562;47.620;18.786;2023-03-19T06:23:43;13.70;;;7.90;;
67757;SDS011;54562;47.620;18.786;2023-03-19T06:26:51;14.20;;;7.70;;
67757;SDS011;54562;47.620;18.786;2023-03-19T06:29:59;13.60;;;7.10;;
67757;SDS011;54562;47.620;18.786;2023-03-19T06:33:07;13.70;;;7.50;;
67757;SDS011;54562;47.620;18.786;2023-03-19T06:36:15;14.40;;;7.80;;
67757;SDS011;54562;47.620;18.786;2023-03-19T06:39:24;9.60;;;4.60;;
67757;SDS011;54562;47.620;18.786;2023-03-19T06:42:33;14.00;;;6.70;;
67757;SDS011;54562;47.620;18.786;2023-03-19T06:45:42;13.20;;;6.90;;
67757;SDS011;54562;47.620;18.786;2023-03-19T06:48:51;12.00;;;6.60;;
67757;SDS011;54562;47.620;18.786;2023-03-19T06:51:59;14.10;;;6.60;;
67757;SDS011;54562;47.620;18.786;2023-03-19T06:55:08;10.30;;;5.60;;
67757;SDS011;54562;47.620;18.786;2023-03-19T06:58:16;13.20;;;6.70;;
67757;SDS011;54562;47.620;18.786;2023-03-19T07:01:26;12.30;;;6.60;;
67757;SDS011;54562;47.620;18.786;2023-03-19T07:04:34;12.80;;;7.40;;
67757;SDS011;54562;47.620;18.786;2023-03-19T07:07:42;13.70;;;7.70;;
67757;SDS011;54562;47.620;18.786;2023-03-19T07:10:50;11.10;;;5.90;;
67757;SDS011;54562;47.620;18.786;2023-03-19T07:13:58;12.50;;;7.10;;
67757;SDS011;54562;47.620;18.786;2023-03-19T07:17:07;12.70;;;5.70;;
67757;SDS011;54562;47.620;18.786;2023-03-19T07:20:15;15.00;;;6.10;;
67757;SDS011;54562;47.620;18.786;2023-03-19T07:23:24;12.70;;;6.70;;
67757;SDS011;54562;47.620;18.786;2023-03-19T07:26:32;11.40;;;6.50;;
67757;SDS011;54562;47.620;18.786;2023-03-19T07:29:40;8.00;;;4.20;;
67757;SDS011;54562;47.620;18.786;2023-03-19T07:32:48;13.10;;;6.70;;
67757;SDS011;54562;47.620;18.786;2023-03-19T07:35:57;9.20;;;5.40;;
67757;SDS011;54562;47.620;18.786;2023-03-19T07:42:11;13.70;;;6.30;;
67757;SDS011;54562;47.620;18.786;2023-03-19T07:45:19;13.20;;;7.20;;
67757;SDS011;54562;47.620;18.786;2023-03-19T07:48:27;11.60;;;6.30;;
67757;SDS011;54562;47.620;18.786;2023-03-19T07:51:35;12.80;;;6.70;;
67757;SDS011;54562;47.620;18.786;2023-03-19T07:54:43;7.50;;;4.70;;
67757;SDS011;54562;47.620;18.786;2023-03-19T07:57:52;11.20;;;6.50;;
67757;SDS011;54562;47.620;18.786;2023-03-19T08:01:01;9.90;;;5.80;;
67757;SDS011;54562;47.620;18.786;2023-03-19T08:04:11;11.10;;;5.60;;
67757;SDS011;54562;47.620;18.786;2023-03-19T08:07:19;10.30;;;5.30;;
67757;SDS011;54562;47.620;18.786;2023-03-19T08:10:27;9.80;;;5.30;;
67757;SDS011;54562;47.620;18.786;2023-03-19T08:13:35;9.30;;;5.30;;
67757;SDS011;54562;47.620;18.786;2023-03-19T08:16:43;8.60;;;4.50;;
67757;SDS011;54562;47.620;18.786;2023-03-19T08:19:51;9.20;;;5.30;;
67757;SDS011;54562;47.620;18.786;2023-03-19T08:23:00;8.70;;;4.40;;
67757;SDS011;54562;47.620;18.786;2023-03-19T08:26:10;8.10;;;4.30;;
67757;SDS011;54562;47.620;18.786;2023-03-19T08:29:18;6.90;;;3.70;;
67757;SDS011;54562;47.620;18.786;2023-03-19T08:32:26;8.60;;;4.80;;
67757;SDS011;54562;47.620;18.786;2023-03-19T08:35:34;8.40;;;4.20;;
67757;SDS011;54562;47.620;18.786;2023-03-19T08:38:43;9.50;;;5.00;;
67757;SDS011;54562;47.620;18.786;2023-03-19T08:41:51;8.90;;;5.20;;
67757;SDS011;54562;47.620;18.786;2023-03-19T08:44:59;9.30;;;5.30;;
67757;SDS011;54562;47.620;18.786;2023-03-19T08:51:11;9.30;;;5.00;;
67757;SDS011;54562;47.620;18.786;2023-03-19T08:54:19;9.50;;;5.60;;
67757;SDS011;54562;47.620;18.786;2023-03-19T08:57:27;9.60;;;5.10;;
67757;SDS011;54562;47.620;18.786;2023-03-19T09:03:43;12.10;;;4.60;;
67757;SDS011;54562;47.620;18.786;2023-03-19T09:06:52;9.90;;;4.50;;
67757;SDS011;54562;47.620;18.786;2023-03-19T09:10:00;9.20;;;5.10;;
67757;SDS011;54562;47.620;18.786;2023-03-19T09:13:08;9.00;;;4.90;;
67757;SDS011;54562;47.620;18.786;2023-03-19T09:16:16;9.70;;;5.00;;
67757;SDS011;54562;47.620;18.786;2023-03-19T09:19:25;8.00;;;4.60;;
67757;SDS011;54562;47.620;18.786;2023-03-19T09:22:33;9.30;;;5.40;;
67757;SDS011;54562;47.620;18.786;2023-03-19T09:25:42;11.50;;;5.20;;
67757;SDS011;54562;47.620;18.786;2023-03-19T09:28:54;11.90;;;5.60;;
67757;SDS011;54562;47.620;18.786;2023-03-19T09:32:03;9.00;;;4.80;;
67757;SDS011;54562;47.620;18.786;2023-03-19T09:35:19;10.10;;;4.20;;
67757;SDS011;54562;47.620;18.786;2023-03-19T09:38:27;9.10;;;5.00;;
67757;SDS011;54562;47.620;18.786;2023-03-19T09:41:42;8.80;;;4.70;;
67757;SDS011;54562;47.620;18.786;2023-03-19T09:45:04;8.90;;;5.10;;
67757;SDS011;54562;47.620;18.786;2023-03-19T09:48:23;9.70;;;5.30;;
67757;SDS011;54562;47.620;18.786;2023-03-19T09:51:42;9.00;;;5.10;;
67757;SDS011;54562;47.620;18.786;2023-03-19T09:54:57;9.30;;;5.20;;
67757;SDS011;54562;47.620;18.786;2023-03-19T09:58:14;11.90;;;5.00;;
67757;SDS011;54562;47.620;18.786;2023-03-19T10:01:28;9.50;;;5.30;;
67757;SDS011;54562;47.620;18.786;2023-03-19T10:04:43;7.90;;;4.50;;
67757;SDS011;54562;47.620;18.786;2023-03-19T10:12:03;8.50;;;5.00;;
67757;SDS011;54562;47.620;18.786;2023-03-19T10:15:26;8.70;;;4.90;;
67757;SDS011;54562;47.620;18.786;2023-03-19T10:18:36;9.30;;;5.20;;
67757;SDS011;54562;47.620;18.786;2023-03-19T10:21:51;10.50;;;5.60;;
67757;SDS011;54562;47.620;18.786;2023-03-19T10:25:07;13.20;;;5.30;;
67757;SDS011;54562;47.620;18.786;2023-03-19T10:28:22;10.40;;;5.50;;
67757;SDS011;54562;47.620;18.786;2023-03-19T10:31:39;10.20;;;4.60;;
67757;SDS011;54562;47.620;18.786;2023-03-19T10:34:58;8.80;;;4.80;;
67757;SDS011;54562;47.620;18.786;2023-03-19T10:38:18;13.10;;;5.00;;
67757;SDS011;54562;47.620;18.786;2023-03-19T10:41:39;8.90;;;4.70;;
67757;SDS011;54562;47.620;18.786;2023-03-19T10:44:55;9.00;;;5.70;;
67757;SDS011;54562;47.620;18.786;2023-03-19T10:48:14;13.30;;;6.10;;
67757;SDS011;54562;47.620;18.786;2023-03-19T10:51:26;10.10;;;5.70;;
67757;SDS011;54562;47.620;18.786;2023-03-19T10:54:34;9.20;;;4.50;;
67757;SDS011;54562;47.620;18.786;2023-03-19T10:57:54;10.10;;;4.90;;
67757;SDS011;54562;47.620;18.786;2023-03-19T11:01:09;8.80;;;5.00;;
67757;SDS011;54562;47.620;18.786;2023-03-19T11:04:20;8.60;;;4.10;;
67757;SDS011;54562;47.620;18.786;2023-03-19T11:07:32;9.40;;;5.50;;
67757;SDS011;54562;47.620;18.786;2023-03-19T11:10:47;8.80;;;4.20;;
67757;SDS011;54562;47.620;18.786;2023-03-19T11:13:56;9.50;;;5.50;;
67757;SDS011;54562;47.620;18.786;2023-03-19T11:17:19;9.30;;;5.50;;
67757;SDS011;54562;47.620;18.786;2023-03-19T11:20:33;10.20;;;5.30;;
67757;SDS011;54562;47.620;18.786;2023-03-19T11:23:43;12.30;;;5.40;;
67757;SDS011;54562;47.620;18.786;2023-03-19T11:26:57;11.00;;;5.60;;
67757;SDS011;54562;47.620;18.786;2023-03-19T11:30:16;9.90;;;5.60;;
67757;SDS011;54562;47.620;18.786;2023-03-19T11:33:40;9.90;;;5.30;;
67757;SDS011;54562;47.620;18.786;2023-03-19T11:37:01;11.20;;;5.60;;
67757;SDS011;54562;47.620;18.786;2023-03-19T11:40:18;10.30;;;5.50;;
67757;SDS011;54562;47.620;18.786;2023-03-19T11:43:42;10.20;;;5.30;;
67757;SDS011;54562;47.620;18.786;2023-03-19T11:46:55;9.20;;;5.40;;
67757;SDS011;54562;47.620;18.786;2023-03-19T11:50:35;9.40;;;5.30;;
67757;SDS011;54562;47.620;18.786;2023-03-19T11:54:02;10.60;;;5.90;;
67757;SDS011;54562;47.620;18.786;2023-03-19T11:57:20;9.70;;;5.30;;
67757;SDS011;54562;47.620;18.786;2023-03-19T12:00:55;11.00;;;5.60;;
67757;SDS011;54562;47.620;18.786;2023-03-19T12:04:17;11.40;;;5.90;;
67757;SDS011;54562;47.620;18.786;2023-03-19T12:07:40;10.20;;;5.60;;
67757;SDS011;54562;47.620;18.786;2023-03-19T12:11:02;10.30;;;5.80;;
67757;SDS011;54562;47.620;18.786;2023-03-19T12:14:34;15.60;;;5.50;;
67757;SDS011;54562;47.620;18.786;2023-03-19T12:17:59;11.10;;;5.10;;
67757;SDS011;54562;47.620;18.786;2023-03-19T12:21:29;10.00;;;5.70;;
67757;SDS011;54562;47.620;18.786;2023-03-19T12:25:01;10.70;;;5.60;;
67757;SDS011;54562;47.620;18.786;2023-03-19T12:28:27;9.10;;;5.50;;
67757;SDS011;54562;47.620;18.786;2023-03-19T12:32:01;10.00;;;5.50;;
67757;SDS011;54562;47.620;18.786;2023-03-19T12:35:23;10.20;;;5.60;;
67757;SDS011;54562;47.620;18.786;2023-03-19T12:38:40;9.30;;;5.00;;
67757;SDS011;54562;47.620;18.786;2023-03-19T12:41:52;9.40;;;5.30;;
67757;SDS011;54562;47.620;18.786;2023-03-19T12:45:04;9.70;;;4.90;;
67757;SDS011;54562;47.620;18.786;2023-03-19T12:48:18;12.70;;;5.50;;
67757;SDS011;54562;47.620;18.786;2023-03-19T12:51:40;9.70;;;5.30;;
67757;SDS011;54562;47.620;18.786;2023-03-19T12:54:55;10.20;;;5.20;;
67757;SDS011;54562;47.620;18.786;2023-03-19T12:58:15;9.20;;;4.90;;
67757;SDS011;54562;47.620;18.786;2023-03-19T13:04:48;11.50;;;6.10;;
67757;SDS011;54562;47.620;18.786;2023-03-19T13:08:04;10.20;;;5.40;;
67757;SDS011;54562;47.620;18.786;2023-03-19T13:11:26;8.90;;;5.30;;
67757;SDS011;54562;47.620;18.786;2023-03-19T13:14:48;9.20;;;5.00;;
67757;SDS011;54562;47.620;18.786;2023-03-19T13:18:11;8.90;;;4.90;;
67757;SDS011;54562;47.620;18.786;2023-03-19T13:21:29;12.30;;;5.60;;
67757;SDS011;54562;47.620;18.786;2023-03-19T13:24:42;9.50;;;5.00;;
67757;SDS011;54562;47.620;18.786;2023-03-19T13:27:54;10.10;;;4.70;;
67757;SDS011;54562;47.620;18.786;2023-03-19T13:31:04;8.90;;;4.80;;
67757;SDS011;54562;47.620;18.786;2023-03-19T13:34:23;8.80;;;5.10;;
67757;SDS011;54562;47.620;18.786;2023-03-19T13:40:45;9.80;;;5.00;;
67757;SDS011;54562;47.620;18.786;2023-03-19T13:43:55;8.80;;;5.10;;
67757;SDS011;54562;47.620;18.786;2023-03-19T13:47:39;8.90;;;5.00;;
67757;SDS011;54562;47.620;18.786;2023-03-19T13:50:58;9.60;;;5.10;;
67757;SDS011;54562;47.620;18.786;2023-03-19T13:54:15;9.50;;;4.90;;
67757;SDS011;54562;47.620;18.786;2023-03-19T13:57:37;10.70;;;5.10;;
67757;SDS011;54562;47.620;18.786;2023-03-19T14:00:57;9.30;;;4.90;;
67757;SDS011;54562;47.620;18.786;2023-03-19T14:04:13;10.60;;;4.80;;
67757;SDS011;54562;47.620;18.786;2023-03-19T14:07:29;8.80;;;5.10;;
67757;SDS011;54562;47.620;18.786;2023-03-19T14:10:47;8.70;;;5.00;;
67757;SDS011;54562;47.620;18.786;2023-03-19T14:14:01;9.70;;;4.90;;
67757;SDS011;54562;47.620;18.786;2023-03-19T14:17:17;9.70;;;4.50;;
67757;SDS011;54562;47.620;18.786;2023-03-19T14:20:30;10.00;;;4.80;;
67757;SDS011;54562;47.620;18.786;2023-03-19T14:23:52;8.70;;;5.00;;
67757;SDS011;54562;47.620;18.786;2023-03-19T14:27:10;17.10;;;5.00;;
67757;SDS011;54562;47.620;18.786;2023-03-19T14:30:28;10.10;;;4.70;;
67757;SDS011;54562;47.620;18.786;2023-03-19T14:33:45;9.20;;;4.80;;
67757;SDS011;54562;47.620;18.786;2023-03-19T14:37:02;9.90;;;6.00;;
67757;SDS011;54562;47.620;18.786;2023-03-19T14:40:22;12.30;;;5.60;;
67757;SDS011;54562;47.620;18.786;2023-03-19T14:43:49;9.20;;;5.60;;
67757;SDS011;54562;47.620;18.786;2023-03-19T14:47:28;13.80;;;7.30;;
67757;SDS011;54562;47.620;18.786;2023-03-19T14:51:12;9.10;;;5.10;;
67757;SDS011;54562;47.620;18.786;2023-03-19T14:54:32;10.50;;;5.50;;
67757;SDS011;54562;47.620;18.786;2023-03-19T14:57:47;10.60;;;5.70;;
67757;SDS011;54562;47.620;18.786;2023-03-19T15:00:55;10.50;;;6.20;;
67757;SDS011;54562;47.620;18.786;2023-03-19T15:04:06;9.10;;;5.60;;
67757;SDS011;54562;47.620;18.786;2023-03-19T15:07:19;10.40;;;5.70;;
67757;SDS011;54562;47.620;18.786;2023-03-19T15:10:41;10.70;;;5.60;;
67757;SDS011;54562;47.620;18.786;2023-03-19T15:14:08;11.70;;;6.40;;
67757;SDS011;54562;47.620;18.786;2023-03-19T15:17:29;10.10;;;5.60;;
67757;SDS011;54562;47.620;18.786;2023-03-19T15:20:44;10.20;;;5.80;;
67757;SDS011;54562;47.620;18.786;2023-03-19T15:23:58;9.90;;;5.70;;
67757;SDS011;54562;47.620;18.786;2023-03-19T15:27:19;14.70;;;8.20;;
67757;SDS011;54562;47.620;18.786;2023-03-19T15:30:30;13.70;;;6.70;;
67757;SDS011;54562;47.620;18.786;2023-03-19T15:33:57;13.50;;;6.60;;
67757;SDS011;54562;47.620;18.786;2023-03-19T15:37:07;12.10;;;6.20;;
67757;SDS011;54562;47.620;18.786;2023-03-19T15:40:20;12.80;;;7.40;;
67757;SDS011;54562;47.620;18.786;2023-03-19T15:43:31;23.00;;;10.80;;
67757;SDS011;54562;47.620;18.786;2023-03-19T15:46:42;13.60;;;7.00;;
67757;SDS011;54562;47.620;18.786;2023-03-19T15:49:55;11.80;;;5.80;;
67757;SDS011;54562;47.620;18.786;2023-03-19T15:53:10;10.80;;;5.60;;
67757;SDS011;54562;47.620;18.786;2023-03-19T15:56:21;14.30;;;6.70;;
67757;SDS011;54562;47.620;18.786;2023-03-19T15:59:31;11.50;;;7.30;;
67757;SDS011;54562;47.620;18.786;2023-03-19T16:02:41;16.90;;;9.20;;
67757;SDS011;54562;47.620;18.786;2023-03-19T16:06:02;10.80;;;5.50;;
67757;SDS011;54562;47.620;18.786;2023-03-19T16:09:22;9.30;;;5.40;;
67757;SDS011;54562;47.620;18.786;2023-03-19T16:12:36;9.10;;;5.10;;
67757;SDS011;54562;47.620;18.786;2023-03-19T16:15:48;10.70;;;5.10;;
67757;SDS011;54562;47.620;18.786;2023-03-19T16:19:02;8.50;;;5.20;;
67757;SDS011;54562;47.620;18.786;2023-03-19T16:22:13;12.00;;;5.50;;
67757;SDS011;54562;47.620;18.786;2023-03-19T16:25:29;11.40;;;5.10;;
67757;SDS011;54562;47.620;18.786;2023-03-19T16:28:45;11.10;;;5.20;;
67757;SDS011;54562;47.620;18.786;2023-03-19T16:32:00;13.90;;;5.40;;
67757;SDS011;54562;47.620;18.786;2023-03-19T16:35:15;12.90;;;5.00;;
67757;SDS011;54562;47.620;18.786;2023-03-19T16:38:25;8.90;;;4.90;;
67757;SDS011;54562;47.620;18.786;2023-03-19T16:45:42;14.60;;;5.20;;
67757;SDS011;54562;47.620;18.786;2023-03-19T16:48:54;10.80;;;5.50;;
67757;SDS011;54562;47.620;18.786;2023-03-19T16:52:05;10.70;;;5.50;;
67757;SDS011;54562;47.620;18.786;2023-03-19T16:55:23;10.40;;;5.00;;
67757;SDS011;54562;47.620;18.786;2023-03-19T16:58:41;8.70;;;5.10;;
67757;SDS011;54562;47.620;18.786;2023-03-19T17:01:51;9.40;;;5.00;;
67757;SDS011;54562;47.620;18.786;2023-03-19T17:04:59;10.10;;;5.00;;
67757;SDS011;54562;47.620;18.786;2023-03-19T17:11:20;10.30;;;5.30;;
67757;SDS011;54562;47.620;18.786;2023-03-19T17:14:31;9.40;;;4.90;;
67757;SDS011;54562;47.620;18.786;2023-03-19T17:17:40;10.90;;;5.30;;
67757;SDS011;54562;47.620;18.786;2023-03-19T17:20:51;8.80;;;5.00;;
67757;SDS011;54562;47.620;18.786;2023-03-19T17:24:06;9.60;;;4.80;;
67757;SDS011;54562;47.620;18.786;2023-03-19T17:27:26;9.00;;;4.90;;
67757;SDS011;54562;47.620;18.786;2023-03-19T17:30:38;8.50;;;5.10;;
67757;SDS011;54562;47.620;18.786;2023-03-19T17:33:47;10.00;;;5.00;;
67757;SDS011;54562;47.620;18.786;2023-03-19T17:36:58;10.00;;;5.10;;
67757;SDS011;54562;47.620;18.786;2023-03-19T17:40:16;9.20;;;4.60;;
67757;SDS011;54562;47.620;18.786;2023-03-19T17:43:26;9.60;;;4.70;;
67757;SDS011;54562;47.620;18.786;2023-03-19T17:46:38;9.30;;;5.10;;
67757;SDS011;54562;47.620;18.786;2023-03-19T17:49:48;9.90;;;5.50;;
67757;SDS011;54562;47.620;18.786;2023-03-19T17:52:57;9.80;;;5.00;;
67757;SDS011;54562;47.620;18.786;2023-03-19T17:56:07;11.40;;;5.50;;
67757;SDS011;54562;47.620;18.786;2023-03-19T17:59:19;11.30;;;5.10;;
67757;SDS011;54562;47.620;18.786;2023-03-19T18:02:30;10.30;;;5.00;;
67757;SDS011;54562;47.620;18.786;2023-03-19T18:05:40;9.40;;;5.10;;
67757;SDS011;54562;47.620;18.786;2023-03-19T18:08:49;9.60;;;4.80;;
67757;SDS011;54562;47.620;18.786;2023-03-19T18:11:57;11.70;;;4.80;;
67757;SDS011;54562;47.620;18.786;2023-03-19T18:15:06;9.60;;;5.00;;
67757;SDS011;54562;47.620;18.786;2023-03-19T18:18:17;8.90;;;4.90;;
67757;SDS011;54562;47.620;18.786;2023-03-19T18:21:27;8.60;;;4.80;;
67757;SDS011;54562;47.620;18.786;2023-03-19T18:27:42;11.90;;;5.50;;
67757;SDS011;54562;47.620;18.786;2023-03-19T18:30:53;9.90;;;5.40;;
67757;SDS011;54562;47.620;18.786;2023-03-19T18:34:06;8.70;;;4.90;;
67757;SDS011;54562;47.620;18.786;2023-03-19T18:37:18;10.40;;;5.30;;
67757;SDS011;54562;47.620;18.786;2023-03-19T18:40:28;9.50;;;4.80;;
67757;SDS011;54562;47.620;18.786;2023-03-19T18:43:38;12.50;;;5.20;;
67757;SDS011;54562;47.620;18.786;2023-03-19T18:46:46;11.20;;;5.40;;
67757;SDS011;54562;47.620;18.786;2023-03-19T18:49:54;9.90;;;5.50;;
67757;SDS011;54562;47.620;18.786;2023-03-19T18:53:02;9.30;;;5.40;;
67757;SDS011;54562;47.620;18.786;2023-03-19T18:56:19;11.20;;;5.90;;
67757;SDS011;54562;47.620;18.786;2023-03-19T18:59:32;12.80;;;5.90;;
67757;SDS011;54562;47.620;18.786;2023-03-19T19:02:40;10.90;;;5.70;;
67757;SDS011;54562;47.620;18.786;2023-03-19T19:05:49;12.00;;;5.40;;
67757;SDS011;54562;47.620;18.786;2023-03-19T19:08:57;12.80;;;6.70;;
67757;SDS011;54562;47.620;18.786;2023-03-19T19:12:10;12.20;;;5.90;;
67757;SDS011;54562;47.620;18.786;2023-03-19T19:15:24;12.00;;;6.60;;
67757;SDS011;54562;47.620;18.786;2023-03-19T19:18:36;12.90;;;6.50;;
67757;SDS011;54562;47.620;18.786;2023-03-19T19:21:44;12.00;;;6.30;;
67757;SDS011;54562;47.620;18.786;2023-03-19T19:24:52;10.90;;;6.20;;
67757;SDS011;54562;47.620;18.786;2023-03-19T19:28:01;10.30;;;5.80;;